Time;durP1;ratioP1;P1;durP2;ratioP2;P2;SDS_P1;SDS_P2;PMS_P1;PMS_P2;Temp;Humidity;BMP_temperature;BMP_pressure;BME280_temperature;BME280_humidity;BME280_pressure;Samples;Min_cycle;Max_cycle;Signal;HPM_P1;HPM_P2
2023/06/20 00:01:29;;;;;;;11.23;4.63;;;;;;;22.11;61.29;99272.63;5037414;28;20438;-71
2023/06/20 00:03:55;;;;;;;10.10;5.13;;;;;;;22.13;60.95;99286.78;5020425;28;20025;-71
2023/06/20 00:06:22;;;;;;;14.00;5.43;;;;;;;22.14;61.40;99283.13;5039023;28;20729;-71
2023/06/20 00:08:48;;;;;;;15.82;5.35;;;;;;;22.12;61.41;99279.69;5039050;28;20032;-71
2023/06/20 00:11:13;;;;;;;10.33;5.50;;;;;;;22.15;61.30;99279.47;5038909;28;20037;-71
2023/06/20 00:13:42;;;;;;;14.85;6.13;;;;;;;22.17;61.43;99288.28;5039009;28;20040;-71
2023/06/20 00:16:11;;;;;;;11.83;5.33;;;;;;;22.12;62.08;99295.78;5038609;28;20064;-71
2023/06/20 00:18:37;;;;;;;14.38;6.68;;;;;;;22.12;62.63;99307.34;5038807;28;20079;-71
2023/06/20 00:21:03;;;;;;;16.10;5.70;;;;;;;22.05;62.87;99301.53;5038630;28;20105;-71
2023/06/20 00:23:32;;;;;;;13.00;5.90;;;;;;;22.07;63.12;99305.00;5038826;28;20021;-71
2023/06/20 00:25:57;;;;;;;13.25;5.95;;;;;;;22.07;63.15;99305.00;5038809;28;20036;-71
2023/06/20 00:28:23;;;;;;;12.67;5.20;;;;;;;22.06;63.11;99308.66;5038865;28;20025;-71
2023/06/20 00:30:48;;;;;;;13.77;5.80;;;;;;;22.11;63.00;99302.09;5038208;28;20076;-71
2023/06/20 00:33:13;;;;;;;11.77;5.77;;;;;;;22.11;62.76;99305.63;5038897;28;20029;-71
2023/06/20 00:35:39;;;;;;;13.07;5.70;;;;;;;22.08;63.13;99309.41;5038610;28;20029;-71
2023/06/20 00:38:04;;;;;;;13.20;6.03;;;;;;;22.08;63.54;99311.22;5050503;28;20061;-71
2023/06/20 00:40:30;;;;;;;14.77;6.47;;;;;;;22.07;63.80;99305.00;5038277;28;20029;-71
2023/06/20 00:42:55;;;;;;;16.73;6.33;;;;;;;22.07;63.99;99288.03;5038701;28;20478;-72
2023/06/20 00:45:32;;;;;;;14.40;6.20;;;;;;;22.03;64.68;99303.47;5038163;28;20065;-71
2023/06/20 00:48:04;;;;;;;16.50;6.10;;;;;;;22.03;64.60;99308.81;5038439;28;20291;-71
2023/06/20 00:50:31;;;;;;;16.10;6.03;;;;;;;22.05;64.25;99306.91;5020444;28;20029;-71
2023/06/20 00:53:04;;;;;;;13.50;6.05;;;;;;;22.05;64.96;99306.91;5038253;28;20095;-71
2023/06/20 00:55:33;;;;;;;17.50;6.13;;;;;;;22.05;64.52;99312.25;5038087;28;20026;-71
2023/06/20 00:57:59;;;;;;;13.60;6.03;;;;;;;22.07;64.60;99318.41;5038166;28;20474;-71
2023/06/20 01:00:27;;;;;;;16.50;6.47;;;;;;;22.05;64.79;99322.97;5037165;28;20026;-71
2023/06/20 01:02:57;;;;;;;15.00;6.50;;;;;;;22.02;65.63;99328.56;5038032;28;20473;-71
2023/06/20 01:05:27;;;;;;;17.52;7.15;;;;;;;22.03;65.64;99342.84;5037938;28;20116;-72
2023/06/20 01:08:03;;;;;;;16.50;6.70;;;;;;;22.02;66.19;99376.81;5038084;28;20433;-71
2023/06/20 01:10:40;;;;;;;17.08;6.35;;;;;;;22.03;65.62;99404.50;5038038;28;20035;-71
2023/06/20 01:13:29;;;;;;;15.67;6.40;;;;;;;22.01;65.97;99431.38;5037768;28;20025;-71
2023/06/20 01:16:04;;;;;;;11.95;6.07;;;;;;;22.02;65.64;99434.94;5037528;28;20026;-71
2023/06/20 01:19:08;;;;;;;14.35;5.97;;;;;;;21.99;65.60;99448.56;5035031;28;20048;-71
2023/06/20 01:21:46;;;;;;;13.95;6.40;;;;;;;22.00;65.44;99461.00;4952734;28;20044;-71
2023/06/20 01:24:23;;;;;;;12.88;6.25;;;;;;;21.99;65.42;99473.53;5016646;28;20034;-71
2023/06/20 01:27:07;;;;;;;12.03;6.00;;;;;;;21.99;65.43;99453.91;5037693;28;20025;-71
2023/06/20 01:29:39;;;;;;;15.23;6.10;;;;;;;22.01;65.55;99454.66;5024965;28;20033;-71
2023/06/20 01:32:10;;;;;;;15.18;6.07;;;;;;;22.02;65.24;99462.59;5019464;28;20036;-71
2023/06/20 01:34:43;;;;;;;11.45;6.22;;;;;;;22.03;65.49;99464.31;5037567;28;20517;-71
2023/06/20 01:37:13;;;;;;;17.00;6.18;;;;;;;22.05;65.23;99462.38;5045824;28;20049;-71
2023/06/20 01:39:49;;;;;;;12.87;5.60;;;;;;;22.07;65.18;99454.25;5037363;28;20036;-71
2023/06/20 01:42:16;;;;;;;14.77;6.18;;;;;;;22.07;65.18;99452.47;5035508;28;20045;-71
2023/06/20 01:44:44;;;;;;;13.35;5.75;;;;;;;22.09;64.98;99438.94;5019597;28;20032;-71
2023/06/20 01:47:14;;;;;;;13.52;6.03;;;;;;;22.10;65.46;99445.16;5036737;28;20020;-71
2023/06/20 01:49:42;;;;;;;16.30;6.13;;;;;;;22.10;65.10;99445.16;5037239;28;20025;-71
2023/06/20 01:52:10;;;;;;;14.20;6.30;;;;;;;22.09;65.29;99441.63;5037443;28;20057;-71
2023/06/20 01:54:37;;;;;;;13.25;6.25;;;;;;;22.08;65.04;99434.53;5037434;28;20438;-71
2023/06/20 01:57:03;;;;;;;14.38;6.50;;;;;;;22.08;65.13;99439.91;5018972;28;20576;-71
2023/06/20 01:59:30;;;;;;;13.77;6.10;;;;;;;22.08;65.29;99427.38;5037554;28;20025;-71
2023/06/20 02:01:59;;;;;;;13.65;6.65;;;;;;;22.08;65.43;99429.16;5036834;28;20481;-71
2023/06/20 02:04:26;;;;;;;14.50;6.10;;;;;;;22.07;65.21;99430.13;5037191;28;20481;-71
2023/06/20 02:06:52;;;;;;;12.60;6.25;;;;;;;22.08;65.40;99440.78;5036941;28;20382;-71
2023/06/20 02:09:18;;;;;;;12.48;6.25;;;;;;;22.08;65.35;99435.41;5037113;28;20029;-71
2023/06/20 02:11:45;;;;;;;15.73;6.40;;;;;;;22.09;65.34;99430.88;5036583;28;20021;-71
2023/06/20 02:14:12;;;;;;;16.02;6.45;;;;;;;22.10;65.34;99427.25;5036875;28;20037;-71
2023/06/20 02:16:39;;;;;;;11.83;6.17;;;;;;;22.08;65.52;99430.03;5036670;28;20080;-71
2023/06/20 02:19:06;;;;;;;15.95;6.82;;;;;;;22.07;65.50;99428.31;5036657;28;20036;-71
2023/06/20 02:21:36;;;;;;;14.45;6.22;;;;;;;22.05;65.74;99419.50;5036794;28;20032;-71
2023/06/20 02:24:04;;;;;;;14.65;6.78;;;;;;;22.04;65.76;99416.94;5036969;28;20414;-71
2023/06/20 02:26:34;;;;;;;14.07;6.78;;;;;;;22.02;65.64;99408.97;5036639;28;20043;-71
2023/06/20 02:29:03;;;;;;;13.00;6.93;;;;;;;21.99;65.83;99408.34;5036979;28;20017;-71
2023/06/20 02:31:32;;;;;;;14.85;7.07;;;;;;;21.98;65.80;99420.88;5036403;28;20571;-71
2023/06/20 02:33:59;;;;;;;15.45;6.55;;;;;;;21.98;65.92;99422.69;5036718;28;20034;-71
2023/06/20 02:36:28;;;;;;;14.25;6.43;;;;;;;21.97;66.14;99427.19;5037267;28;20026;-71
2023/06/20 02:38:55;;;;;;;15.77;6.53;;;;;;;21.98;65.92;99415.50;5018783;28;20079;-71
2023/06/20 02:41:21;;;;;;;13.40;6.47;;;;;;;21.95;65.86;99423.75;5036376;28;20029;-72
2023/06/20 02:43:47;;;;;;;16.58;7.05;;;;;;;21.93;65.97;99423.84;5036760;28;20025;-71
2023/06/20 02:46:18;;;;;;;16.48;6.72;;;;;;;21.93;66.01;99417.63;5036156;28;20033;-71
2023/06/20 02:49:11;;;;;;;18.17;6.70;;;;;;;21.92;66.19;99422.13;5036270;28;20494;-71
2023/06/20 02:51:44;;;;;;;14.82;6.47;;;;;;;21.92;66.18;99411.41;5036745;28;20022;-71
2023/06/20 02:54:24;;;;;;;14.75;6.68;;;;;;;21.91;66.75;99403.47;5036476;28;20025;-71
2023/06/20 02:56:53;;;;;;;13.27;6.30;;;;;;;21.91;66.83;99408.84;5036317;28;20046;-71
2023/06/20 02:59:22;;;;;;;14.07;6.65;;;;;;;21.91;66.59;99408.84;5036523;28;20033;-71
2023/06/20 03:01:50;;;;;;;16.53;6.43;;;;;;;21.91;66.54;99398.97;5036159;28;20032;-70
2023/06/20 03:04:18;;;;;;;18.33;7.43;;;;;;;21.92;66.59;99408.72;5036492;28;20085;-71
2023/06/20 03:06:50;;;;;;;13.50;6.88;;;;;;;21.90;66.85;99409.81;5036555;28;20074;-71
2023/06/20 03:09:15;;;;;;;14.77;6.85;;;;;;;21.92;67.09;99402.50;5036631;28;20033;-71
2023/06/20 03:11:41;;;;;;;15.10;7.13;;;;;;;21.91;67.25;99406.16;5018629;28;20030;-71
2023/06/20 03:14:12;;;;;;;18.90;7.28;;;;;;;21.90;67.27;99393.72;5036362;28;20363;-71
2023/06/20 03:16:37;;;;;;;15.57;7.07;;;;;;;21.90;67.50;99383.00;5035924;28;20389;-71
2023/06/20 03:19:03;;;;;;;15.23;7.00;;;;;;;21.87;67.24;99388.56;5035988;28;20025;-71
2023/06/20 03:21:28;;;;;;;16.43;7.37;;;;;;;21.86;67.74;99382.31;5036463;28;20029;-71
2023/06/20 03:23:54;;;;;;;19.27;7.30;;;;;;;21.87;67.33;99410.00;5039197;28;20021;-71
2023/06/20 03:26:19;;;;;;;16.00;7.23;;;;;;;21.87;67.71;99410.00;5040091;28;20026;-71
2023/06/20 03:28:44;;;;;;;17.97;7.10;;;;;;;21.87;67.58;99418.88;5039991;28;20036;-71
2023/06/20 03:31:10;;;;;;;14.87;6.77;;;;;;;21.85;67.57;99412.75;5039671;28;20021;-71
2023/06/20 03:33:35;;;;;;;21.90;7.50;;;;;;;21.87;67.85;99408.16;5039805;28;20029;-72
2023/06/20 03:36:01;;;;;;;16.90;7.07;;;;;;;21.86;68.10;99402.91;5040641;28;20493;-71
2023/06/20 03:38:27;;;;;;;15.83;7.30;;;;;;;21.87;67.81;99407.31;5039923;28;20033;-71
2023/06/20 03:40:54;;;;;;;13.80;7.22;;;;;;;21.87;67.86;99412.69;5039632;28;20490;-71
2023/06/20 03:43:19;;;;;;;21.43;7.77;;;;;;;21.88;68.02;99425.13;5039787;28;20025;-71
2023/06/20 03:45:44;;;;;;;18.33;7.50;;;;;;;21.89;67.88;99429.53;5039534;28;20085;-71
2023/06/20 03:48:10;;;;;;;14.30;7.10;;;;;;;21.90;67.90;99425.88;5039580;28;20291;-71
2023/06/20 03:50:35;;;;;;;14.70;7.00;;;;;;;21.83;68.23;99429.94;5039484;28;20057;-71
2023/06/20 03:53:01;;;;;;;21.40;8.03;;;;;;;21.86;68.21;99437.75;5039562;28;20037;-71
2023/06/20 03:55:26;;;;;;;16.33;7.60;;;;;;;21.87;68.29;99442.16;5039403;28;20104;-71
2023/06/20 03:57:52;;;;;;;21.83;7.50;;;;;;;21.89;68.13;99451.81;5039555;28;20037;-71
2023/06/20 04:00:17;;;;;;;20.97;7.30;;;;;;;21.90;68.31;99453.53;5039156;28;20029;-71
2023/06/20 04:02:44;;;;;;;21.50;7.47;;;;;;;21.91;68.36;99454.41;5039435;28;20108;-71
2023/06/20 04:05:10;;;;;;;18.15;7.57;;;;;;;21.91;68.17;99451.72;5021553;28;20021;-72
2023/06/20 04:07:35;;;;;;;25.38;8.40;;;;;;;21.90;68.39;99453.53;5021575;28;20021;-71
2023/06/20 04:10:01;;;;;;;20.83;8.27;;;;;;;21.89;68.34;99451.81;5021595;28;20033;-71
2023/06/20 04:12:26;;;;;;;20.00;7.30;;;;;;;21.91;68.41;99459.75;5039277;28;20393;-71
2023/06/20 04:14:53;;;;;;;18.80;7.93;;;;;;;21.92;68.55;99453.44;5039086;28;20028;-71
2023/06/20 04:17:19;;;;;;;17.87;7.23;;;;;;;21.94;68.38;99456.88;5039142;28;20429;-71
2023/06/20 04:19:44;;;;;;;17.63;8.10;;;;;;;21.94;68.53;99446.16;5039183;28;20048;-71
2023/06/20 04:22:11;;;;;;;19.50;7.87;;;;;;;21.93;68.73;99449.81;5039188;28;20539;-72
2023/06/20 04:24:37;;;;;;;19.38;8.77;;;;;;;21.92;68.92;99450.75;5039051;28;20075;-72
2023/06/20 04:27:02;;;;;;;18.60;8.37;;;;;;;21.91;69.01;99455.25;5038952;28;20117;-71
2023/06/20 04:29:29;;;;;;;24.27;8.35;;;;;;;21.92;69.21;99456.13;5038808;28;20040;-71
2023/06/20 04:31:55;;;;;;;14.82;7.95;;;;;;;21.91;69.43;99460.59;5038724;28;20119;-72
2023/06/20 04:34:23;;;;;;;17.17;8.53;;;;;;;21.92;69.43;99456.97;5038957;28;20025;-71
2023/06/20 04:36:49;;;;;;;21.50;8.40;;;;;;;21.92;69.44;99450.75;5022742;28;20021;-72
2023/06/20 04:39:14;;;;;;;18.80;7.85;;;;;;;21.92;69.75;99461.47;5038876;28;20068;-71
2023/06/20 04:41:39;;;;;;;20.03;8.27;;;;;;;21.89;69.80;99450.97;5038778;28;20072;-71
2023/06/20 04:44:05;;;;;;;21.73;8.90;;;;;;;21.89;69.86;99453.63;5020948;28;20049;-71
2023/06/20 04:46:30;;;;;;;19.23;8.30;;;;;;;21.87;70.41;99464.44;5038365;28;20424;-71
2023/06/20 04:48:55;;;;;;;19.20;9.10;;;;;;;21.89;70.13;99459.84;5020865;28;20513;-71
2023/06/20 04:51:21;;;;;;;24.37;8.90;;;;;;;21.88;70.40;99462.66;5038750;28;20431;-72
2023/06/20 04:53:48;;;;;;;19.53;8.30;;;;;;;21.89;70.14;99477.75;5038561;28;20043;-71
2023/06/20 04:56:15;;;;;;;19.05;8.30;;;;;;;21.91;70.31;99467.81;5038669;28;20466;-71
2023/06/20 04:58:41;;;;;;;18.45;8.63;;;;;;;21.91;70.07;99465.13;5038442;28;20021;-71
2023/06/20 05:01:06;;;;;;;20.80;9.30;;;;;;;21.86;70.29;99456.53;5037900;28;20021;-71
2023/06/20 05:03:31;;;;;;;21.27;8.40;;;;;;;21.91;70.22;99451.72;5038378;28;20033;-71
2023/06/20 05:05:57;;;;;;;22.23;9.00;;;;;;;21.93;70.17;99442.59;5020835;28;20112;-71
2023/06/20 05:08:22;;;;;;;20.50;8.50;;;;;;;21.92;70.84;99446.25;5038269;28;20024;-71
2023/06/20 05:10:48;;;;;;;19.07;9.20;;;;;;;21.97;70.77;99437.06;5020391;28;20337;-71
2023/06/20 05:13:13;;;;;;;20.03;9.33;;;;;;;22.00;70.73;99435.03;5038174;28;20103;-71
2023/06/20 05:15:38;;;;;;;22.13;9.30;;;;;;;22.06;70.30;99434.66;5020197;28;20025;-71
2023/06/20 05:18:04;;;;;;;19.53;8.93;;;;;;;22.14;70.42;99433.28;5037873;28;20381;-71
2023/06/20 05:20:29;;;;;;;22.20;9.05;;;;;;;22.15;70.17;99429.63;5020248;28;20500;-71
2023/06/20 05:22:55;;;;;;;19.87;8.70;;;;;;;22.13;70.63;99420.84;5037847;28;20029;-71
2023/06/20 05:25:20;;;;;;;26.90;9.03;;;;;;;22.15;70.50;99418.91;5019696;28;20017;-71
2023/06/20 05:27:49;;;;;;;23.37;8.60;;;;;;;22.18;70.49;99427.59;5037883;28;20040;-71
2023/06/20 05:30:14;;;;;;;19.85;8.50;;;;;;;22.28;70.19;99427.84;5037709;28;20032;-71
2023/06/20 05:32:39;;;;;;;22.23;8.77;;;;;;;22.36;69.99;99427.34;5037952;28;20112;-71
2023/06/20 05:35:07;;;;;;;27.13;9.10;;;;;;;22.45;69.95;99428.53;5037762;28;20029;-71
2023/06/20 05:37:33;;;;;;;21.20;8.30;;;;;;;22.53;70.20;99431.59;5038857;28;20284;-72
2023/06/20 05:39:58;;;;;;;26.33;8.63;;;;;;;22.61;69.83;99442.69;5037505;28;20033;-71
2023/06/20 05:42:23;;;;;;;24.13;8.90;;;;;;;22.62;69.97;99449.78;5037551;28;20021;-71
2023/06/20 05:44:49;;;;;;;21.13;8.60;;;;;;;22.59;70.07;99460.72;5037433;28;20029;-71
2023/06/20 05:47:17;;;;;;;22.07;8.70;;;;;;;22.60;69.82;99473.16;5019047;28;20053;-71
2023/06/20 05:49:47;;;;;;;23.55;9.23;;;;;;;22.61;70.17;99472.19;5037580;28;20500;-71
2023/06/20 05:52:13;;;;;;;27.65;10.75;;;;;;;22.64;70.17;99469.31;5019710;28;20026;-71
2023/06/20 05:54:41;;;;;;;23.75;9.55;;;;;;;22.59;70.41;99468.78;5037539;28;20113;-71
2023/06/20 05:57:07;;;;;;;25.85;9.70;;;;;;;22.55;71.01;99463.69;5037296;28;20500;-71
2023/06/20 05:59:32;;;;;;;22.17;9.30;;;;;;;22.57;71.05;99472.50;5037444;28;20053;-72
2023/06/20 06:01:58;;;;;;;25.38;10.13;;;;;;;22.50;71.65;99472.91;5036928;28;20025;-71
2023/06/20 06:04:25;;;;;;;22.70;10.87;;;;;;;22.61;71.60;99466.84;5037249;28;20104;-71
2023/06/20 06:06:51;;;;;;;25.40;9.57;;;;;;;22.62;71.47;99465.88;5037350;28;20020;-72
2023/06/20 06:09:16;;;;;;;19.43;9.67;;;;;;;22.63;71.41;99462.22;5030474;28;20034;-70
2023/06/20 06:11:41;;;;;;;25.90;10.27;;;;;;;22.65;71.32;99454.94;5036965;28;20021;-71
2023/06/20 06:14:07;;;;;;;24.25;10.43;;;;;;;22.69;71.40;99443.97;5037082;28;20033;-72
2023/06/20 06:16:33;;;;;;;22.67;10.23;;;;;;;22.71;71.34;99447.41;5036260;28;20040;-71
2023/06/20 06:19:00;;;;;;;25.50;9.80;;;;;;;22.87;71.02;99458.84;5036894;28;20025;-71
2023/06/20 06:21:26;;;;;;;20.87;9.40;;;;;;;22.96;70.37;99464.53;5036737;28;20029;-71
2023/06/20 06:23:52;;;;;;;19.55;8.65;;;;;;;23.03;70.38;99468.50;5019023;28;20096;-71
2023/06/20 06:26:17;;;;;;;23.42;9.25;;;;;;;23.03;70.09;99460.44;5036784;28;20790;-71
2023/06/20 06:28:42;;;;;;;20.27;8.20;;;;;;;23.02;69.86;99461.41;5036962;28;20022;-71
2023/06/20 06:31:11;;;;;;;23.23;8.83;;;;;;;23.06;69.86;99442.31;5030973;28;20033;-70
2023/06/20 06:33:36;;;;;;;25.98;8.85;;;;;;;23.11;69.44;99428.56;5033466;28;20064;-71
2023/06/20 06:36:02;;;;;;;18.77;7.67;;;;;;;23.13;69.13;99423.94;5037123;28;20061;-70
2023/06/20 06:38:28;;;;;;;20.35;7.57;;;;;;;23.11;68.68;99428.56;5036759;28;20474;-71
2023/06/20 06:40:54;;;;;;;22.03;8.73;;;;;;;23.13;68.81;99432.00;5036395;28;20029;-71
2023/06/20 06:43:20;;;;;;;20.90;8.82;;;;;;;23.12;68.46;99437.47;5036388;28;20022;-71
2023/06/20 06:45:46;;;;;;;26.50;8.73;;;;;;;23.12;68.52;99434.78;5036145;28;20025;-71
2023/06/20 06:48:11;;;;;;;15.83;7.27;;;;;;;23.10;68.20;99429.53;5036518;28;20459;-71
2023/06/20 06:50:36;;;;;;;19.47;7.40;;;;;;;23.09;68.14;99427.81;5036542;28;20022;-71
2023/06/20 06:53:02;;;;;;;18.50;8.30;;;;;;;23.07;67.80;99421.69;5036584;28;20263;-71
2023/06/20 06:55:27;;;;;;;19.10;7.73;;;;;;;23.04;67.82;99421.91;5036541;28;20018;-71
2023/06/20 06:57:53;;;;;;;19.23;7.77;;;;;;;23.03;67.49;99422.84;5037645;28;20026;-71
2023/06/20 07:00:18;;;;;;;20.50;8.70;;;;;;;23.06;67.38;99422.66;5040333;28;20025;-71
2023/06/20 07:02:44;;;;;;;21.27;7.90;;;;;;;23.10;67.12;99416.09;5022662;28;20053;-71
2023/06/20 07:05:11;;;;;;;19.50;6.90;;;;;;;23.12;67.04;99419.53;5040453;28;20036;-71
2023/06/20 07:07:36;;;;;;;24.87;7.50;;;;;;;23.15;66.94;99424.69;5040607;28;20018;-71
2023/06/20 07:10:02;;;;;;;16.48;7.30;;;;;;;23.25;66.76;99442.84;5040602;28;20029;-71
2023/06/20 07:12:27;;;;;;;20.67;7.27;;;;;;;23.33;66.24;99452.09;5040414;28;20079;-71
2023/06/20 07:14:56;;;;;;;17.00;7.13;;;;;;;23.44;66.07;99463.94;5040168;28;20036;-71
2023/06/20 07:17:23;;;;;;;16.17;7.10;;;;;;;23.50;65.36;99471.56;5039791;28;20013;-71
2023/06/20 07:19:49;;;;;;;17.02;7.07;;;;;;;23.55;65.11;99479.31;5040284;28;20036;-71
2023/06/20 07:22:14;;;;;;;14.23;6.70;;;;;;;23.63;64.55;99484.97;5040320;28;20021;-71
2023/06/20 07:24:40;;;;;;;15.05;7.38;;;;;;;23.67;64.16;99499.91;5040162;28;20047;-71
2023/06/20 07:27:05;;;;;;;13.90;5.97;;;;;;;23.73;63.90;99510.22;5022375;28;20393;-71
2023/06/20 07:29:31;;;;;;;14.70;7.23;;;;;;;23.74;63.99;99517.31;5040009;28;20032;-71
2023/06/20 07:31:56;;;;;;;14.90;6.37;;;;;;;23.74;64.13;99503.03;5040055;28;20025;-71
2023/06/20 07:34:21;;;;;;;15.73;6.55;;;;;;;23.82;64.17;99497.09;5040021;28;20473;-71
2023/06/20 07:36:47;;;;;;;14.87;6.70;;;;;;;23.89;63.49;99490.31;5040342;28;20030;-71
2023/06/20 07:39:12;;;;;;;18.80;7.00;;;;;;;24.01;63.16;99492.16;5021953;28;20120;-71
2023/06/20 07:41:38;;;;;;;13.97;6.27;;;;;;;24.12;62.87;99477.03;5039860;28;20048;-72
2023/06/20 07:44:04;;;;;;;16.90;6.47;;;;;;;24.20;62.90;99469.25;5039865;28;20386;-71
2023/06/20 07:46:30;;;;;;;16.42;6.60;;;;;;;24.31;62.21;99461.25;5039428;28;20082;-71
2023/06/20 07:48:56;;;;;;;13.95;6.40;;;;;;;24.40;62.13;99469.59;5039448;28;20124;-71
2023/06/20 07:51:21;;;;;;;12.83;6.53;;;;;;;24.41;61.94;99472.19;5022055;28;20030;-71
2023/06/20 07:53:46;;;;;;;26.97;7.63;;;;;;;24.47;61.56;99476.25;5039490;28;20029;-71
2023/06/20 07:56:12;;;;;;;60.75;10.52;;;;;;;24.52;61.70;99471.41;5039572;28;20025;-71
2023/06/20 07:58:39;;;;;;;20.40;7.43;;;;;;;24.54;61.32;99469.44;5039526;28;20130;-71
2023/06/20 08:01:06;;;;;;;16.92;6.70;;;;;;;24.55;60.96;99468.47;5039108;28;20057;-71
2023/06/20 08:03:31;;;;;;;14.87;6.33;;;;;;;24.59;61.07;99450.22;5039587;28;20025;-71
2023/06/20 08:05:57;;;;;;;13.70;5.97;;;;;;;24.62;60.95;99429.34;5039584;28;20087;-71
2023/06/20 08:08:22;;;;;;;14.00;5.90;;;;;;;24.66;60.55;99387.75;5038889;28;20104;-71
2023/06/20 08:10:48;;;;;;;15.07;6.20;;;;;;;24.73;60.64;99376.53;5039420;28;20021;-71
2023/06/20 08:13:13;;;;;;;12.00;5.72;;;;;;;24.77;60.27;99413.88;5039113;28;20031;-71
2023/06/20 08:15:39;;;;;;;13.67;6.53;;;;;;;24.72;59.96;99460.94;5038484;28;20029;-71
2023/06/20 08:18:04;;;;;;;14.87;6.70;;;;;;;24.75;60.43;99484.97;5018349;28;20026;-71
2023/06/20 08:20:30;;;;;;;15.07;6.47;;;;;;;24.74;60.09;99475.16;5039235;28;20029;-71
2023/06/20 08:22:56;;;;;;;17.48;6.68;;;;;;;24.78;60.10;99458.66;5039100;28;20064;-71
2023/06/20 08:25:21;;;;;;;12.07;5.90;;;;;;;24.81;60.17;99452.19;5038919;28;20053;-71
2023/06/20 08:27:46;;;;;;;13.30;6.03;;;;;;;24.83;59.87;99454.75;5021316;28;20028;-71
2023/06/20 08:30:12;;;;;;;14.83;6.80;;;;;;;24.79;59.54;99456.84;5038980;28;20386;-71
2023/06/20 08:32:39;;;;;;;13.82;6.18;;;;;;;24.83;59.49;99471.78;5021341;28;20034;-72
2023/06/20 08:35:07;;;;;;;20.07;7.10;;;;;;;24.84;59.31;99478.88;5025797;28;20052;-71
2023/06/20 08:37:33;;;;;;;71.80;11.02;;;;;;;24.86;59.30;99485.00;5039775;28;20030;-71
2023/06/20 08:39:58;;;;;;;22.03;7.27;;;;;;;24.85;59.74;99479.75;5038643;28;20040;-71
2023/06/20 08:42:24;;;;;;;29.23;8.07;;;;;;;24.92;59.32;99487.22;5038833;28;20389;-71
2023/06/20 08:44:49;;;;;;;13.63;6.50;;;;;;;24.99;59.40;99484.91;5038843;28;20284;-71
2023/06/20 08:47:15;;;;;;;14.83;6.80;;;;;;;25.10;58.92;99484.09;5038242;28;20117;-72
2023/06/20 08:49:41;;;;;;;16.02;6.30;;;;;;;25.23;58.67;99479.47;5038659;28;20029;-71
2023/06/20 08:52:11;;;;;;;24.73;7.00;;;;;;;25.30;58.46;99469.03;5038643;28;20115;-71
2023/06/20 08:54:41;;;;;;;74.35;13.02;;;;;;;25.42;58.79;99475.31;5038541;28;20024;-71
2023/06/20 08:57:07;;;;;;;21.17;7.10;;;;;;;25.41;58.53;99473.59;5038094;28;20110;-71
2023/06/20 08:59:36;;;;;;;14.00;6.70;;;;;;;25.42;58.56;99472.59;5038584;28;20046;-71
2023/06/20 09:02:04;;;;;;;17.13;7.35;;;;;;;25.48;58.74;99466.78;5038154;28;20029;-71
2023/06/20 09:04:30;;;;;;;14.88;6.68;;;;;;;25.49;58.96;99457.72;5038455;28;20033;-71
2023/06/20 09:06:56;;;;;;;16.13;7.27;;;;;;;25.47;58.98;99446.19;5038170;28;20454;-71
2023/06/20 09:09:22;;;;;;;75.03;12.38;;;;;;;25.46;59.05;99436.38;5038308;28;20025;-71
2023/06/20 09:11:49;;;;;;;18.93;7.27;;;;;;;25.59;59.24;99430.00;5020179;28;20029;-71
2023/06/20 09:14:16;;;;;;;20.23;7.65;;;;;;;25.76;59.08;99424.09;5027541;28;20021;-71
2023/06/20 09:16:42;;;;;;;16.17;7.32;;;;;;;26.01;58.82;99403.22;5019886;28;20033;-71
2023/06/20 09:19:08;;;;;;;50.70;10.53;;;;;;;26.23;58.83;99396.06;5020098;28;20026;-71
2023/06/20 09:21:36;;;;;;;17.92;6.90;;;;;;;26.51;58.55;99388.31;5037254;28;20029;-71
2023/06/20 09:24:06;;;;;;;20.95;8.07;;;;;;;26.76;57.91;99391.63;5038114;28;20032;-71
2023/06/20 09:26:32;;;;;;;18.45;7.43;;;;;;;26.89;57.59;99380.63;5037921;28;20021;-71
2023/06/20 09:29:09;;;;;;;19.15;7.50;;;;;;;26.78;57.60;99365.34;5038146;28;20100;-71
2023/06/20 09:31:48;;;;;;;17.53;6.90;;;;;;;26.96;57.84;99345.84;5037359;28;20104;-71
2023/06/20 09:34:16;;;;;;;22.60;7.90;;;;;;;27.08;57.79;99334.81;5038064;28;20544;-71
2023/06/20 09:36:42;;;;;;;15.65;7.60;;;;;;;27.09;57.27;99322.13;5039004;28;20505;-71
2023/06/20 09:39:10;;;;;;;18.85;7.20;;;;;;;27.01;57.54;99313.88;5019808;28;20022;-71
2023/06/20 09:41:36;;;;;;;88.47;12.55;;;;;;;26.89;57.60;99334.72;5037485;28;20382;-71
2023/06/20 09:44:01;;;;;;;21.73;8.27;;;;;;;26.82;57.92;99374.88;5037693;28;20039;-71
2023/06/20 09:46:27;;;;;;;17.23;7.10;;;;;;;26.79;58.03;99378.72;5037257;28;20400;-71
2023/06/20 09:48:53;;;;;;;15.77;7.30;;;;;;;26.76;58.12;99376.25;5037330;28;20123;-72
2023/06/20 09:51:21;;;;;;;18.63;7.20;;;;;;;26.80;58.49;99371.44;5019965;28;20029;-72
2023/06/20 09:53:51;;;;;;;18.77;7.80;;;;;;;26.79;58.12;99384.13;5037418;28;20063;-71
2023/06/20 09:56:19;;;;;;;16.38;7.30;;;;;;;26.85;58.30;99385.44;5037516;28;20118;-71
2023/06/20 09:58:46;;;;;;;17.77;7.55;;;;;;;26.94;58.18;99370.28;5037179;28;20037;-72
2023/06/20 10:01:16;;;;;;;58.20;11.70;;;;;;;26.89;58.27;99349.09;5036984;28;20035;-71
2023/06/20 10:03:42;;;;;;;18.38;8.32;;;;;;;26.87;58.70;99361.84;5037268;28;20490;-71
2023/06/20 10:06:11;;;;;;;20.15;7.72;;;;;;;26.87;58.41;99364.53;5036917;28;20029;-72
2023/06/20 10:08:37;;;;;;;19.63;7.22;;;;;;;26.89;58.69;99368.00;5037145;28;20025;-72
2023/06/20 10:11:02;;;;;;;25.70;8.45;;;;;;;26.81;58.74;99359.66;5037237;28;20029;-71
2023/06/20 10:13:29;;;;;;;15.80;7.83;;;;;;;26.74;59.42;99350.38;5027324;28;20390;-72
2023/06/20 10:15:54;;;;;;;26.77;8.50;;;;;;;26.51;59.41;99358.63;5036926;28;20052;-72
2023/06/20 10:18:40;;;;;;;18.57;8.17;;;;;;;26.43;59.00;99358.44;5036746;28;20120;-72
2023/06/20 10:21:07;;;;;;;23.77;8.45;;;;;;;26.42;59.64;99341.38;5036544;28;20022;-72
2023/06/20 10:23:36;;;;;;;21.27;8.35;;;;;;;26.59;59.27;99310.22;5036832;28;20906;-71
2023/06/20 10:26:05;;;;;;;23.08;8.95;;;;;;;26.77;58.49;99315.88;5019202;28;20064;-72
2023/06/20 10:28:30;;;;;;;17.73;8.25;;;;;;;26.84;57.74;99336.94;5023958;28;20047;-71
2023/06/20 10:30:58;;;;;;;19.80;7.93;;;;;;;26.94;58.18;99359.47;5036593;28;20025;-71
2023/06/20 10:33:27;;;;;;;17.20;7.97;;;;;;;26.93;57.97;99366.75;5036845;28;20057;-72
2023/06/20 10:35:57;;;;;;;17.30;8.05;;;;;;;26.95;57.90;99374.69;5038130;28;20036;-71
2023/06/20 10:38:23;;;;;;;23.73;8.27;;;;;;;27.00;58.21;99383.25;5024181;28;20486;-72
2023/06/20 10:41:10;;;;;;;21.70;8.40;;;;;;;26.93;57.98;99377.53;5036684;28;20048;-72
2023/06/20 10:43:59;;;;;;;20.13;8.32;;;;;;;26.90;58.07;99377.81;5036902;28;20021;-72
2023/06/20 10:46:27;;;;;;;16.25;7.85;;;;;;;26.99;58.08;99391.50;5023541;28;20039;-72
2023/06/20 10:48:52;;;;;;;19.55;7.78;;;;;;;26.90;57.79;99399.44;5036491;28;20405;-72
2023/06/20 10:51:18;;;;;;;18.60;8.20;;;;;;;26.91;57.83;99409.25;5036875;28;20029;-72
2023/06/20 10:53:44;;;;;;;18.53;8.10;;;;;;;27.27;57.39;99383.66;5036542;28;20036;-72
2023/06/20 10:56:24;;;;;;;16.73;7.70;;;;;;;27.61;56.88;99376.13;5036571;28;20014;-72
2023/06/20 10:58:50;;;;;;;16.40;7.57;;;;;;;27.94;56.94;99378.63;5036346;28;20033;-72
2023/06/20 11:01:18;;;;;;;18.60;8.03;;;;;;;28.25;56.11;99386.63;5036380;28;20031;-71
2023/06/20 11:03:45;;;;;;;20.70;8.32;;;;;;;28.33;55.50;99377.81;5036405;28;20038;-72
2023/06/20 11:06:14;;;;;;;19.08;7.57;;;;;;;28.16;55.42;99371.25;5036531;28;20056;-71
2023/06/20 11:08:43;;;;;;;22.43;8.40;;;;;;;28.15;55.79;99361.41;5018709;28;20032;-72
2023/06/20 11:11:09;;;;;;;19.40;7.47;;;;;;;28.07;55.75;99354.81;5036584;28;20033;-72
2023/06/20 11:13:42;;;;;;;17.20;7.83;;;;;;;28.01;55.62;99341.03;5025603;28;20478;-72
2023/06/20 11:16:19;;;;;;;19.38;7.90;;;;;;;28.03;55.87;99337.16;5018408;28;20029;-72
2023/06/20 11:18:44;;;;;;;20.95;8.00;;;;;;;28.27;55.68;99344.03;5018251;28;20075;-72
2023/06/20 11:21:10;;;;;;;16.83;6.90;;;;;;;28.63;54.60;99328.03;5036325;28;20548;-72
2023/06/20 11:23:35;;;;;;;19.47;7.37;;;;;;;28.96;53.72;99324.97;5018625;28;20268;-72
2023/06/20 11:26:00;;;;;;;23.30;7.70;;;;;;;28.99;53.65;99311.13;5036334;28;20041;-72